Time;durP1;ratioP1;P1;durP2;ratioP2;P2;SDS_P1;SDS_P2;PMS_P1;PMS_P2;Temp;Humidity;BMP_temperature;BMP_pressure;BME280_temperature;BME280_humidity;BME280_pressure;Samples;Min_cycle;Max_cycle;Signal;HPM_P1;HPM_P2
2021/12/17 00:01:09;;;;;;;38.28;26.13;;;5.60;84.10;;;3.42;99.96;97993.25;4971331;28;20038;-67
2021/12/17 00:03:42;;;;;;;39.67;25.73;;;5.50;84.20;;;3.41;99.46;97995.94;4971156;28;20397;-67
2021/12/17 00:08:37;;;;;;;39.13;27.00;;;5.60;84.20;;;3.40;99.99;97974.31;4972207;28;20038;-67
2021/12/17 00:11:03;;;;;;;35.30;25.20;;;5.50;84.30;;;3.41;100.00;97959.53;4954815;28;21265;-67
2021/12/17 00:13:29;;;;;;;37.45;25.05;;;5.60;84.30;;;3.41;100.00;97955.16;4971916;28;20042;-67
2021/12/17 00:15:55;;;;;;;35.05;23.30;;;5.60;84.20;;;3.36;99.63;97952.81;4969993;28;20061;-67
2021/12/17 00:18:28;;;;;;;40.58;26.15;;;5.40;84.40;;;3.33;100.00;97968.63;4954962;28;20529;-67
2021/12/17 00:53:19;;;;;;;40.95;24.42;;;5.60;84.80;;;3.44;100.00;97991.38;4971643;28;20035;-67
2021/12/17 00:55:45;;;;;;;44.58;26.70;;;5.60;84.70;;;3.43;100.00;97994.91;4986596;28;20562;-67
2021/12/17 00:58:10;;;;;;;41.92;26.98;;;5.60;84.60;;;3.45;100.00;97987.84;4974140;28;20034;-67
2021/12/17 01:00:36;;;;;;;40.83;24.85;;;5.60;84.50;;;3.46;100.00;97989.50;4953835;28;20104;-67
2021/12/17 01:03:02;;;;;;;41.88;26.63;;;5.60;84.70;;;3.47;100.00;97979.94;4954049;28;20085;-67
2021/12/17 01:05:29;;;;;;;41.15;26.90;;;5.60;84.60;;;3.48;100.00;97987.63;4988477;28;20037;-67
2021/12/17 01:07:56;;;;;;;42.63;26.25;;;5.70;84.60;;;3.47;100.00;97978.16;4986193;28;20034;-67
2021/12/17 01:10:31;;;;;;;40.28;24.88;;;5.60;84.60;;;3.50;100.00;97977.97;4968702;28;20105;-68
2021/12/17 01:12:57;;;;;;;46.67;26.38;;;5.60;84.60;;;3.50;100.00;97970.16;4983263;28;20514;-67
2021/12/17 01:15:23;;;;;;;47.67;26.48;;;5.60;84.60;;;3.48;100.00;97964.22;4963089;28;20026;-67
2021/12/17 01:17:52;;;;;;;44.45;27.90;;;5.60;84.60;;;3.47;100.00;97965.16;4950099;28;20046;-67
2021/12/17 01:23:08;;;;;;;44.33;28.52;;;5.60;84.90;;;3.44;100.00;97960.16;4985036;28;20214;-67
2021/12/17 01:35:19;;;;;;;46.72;28.75;;;5.60;85.00;;;3.43;100.00;97953.28;4970911;28;20038;-67
2021/12/17 01:37:46;;;;;;;45.08;26.55;;;5.50;85.10;;;3.36;100.00;97939.00;4975249;28;20068;-67
2021/12/17 01:42:32;;;;;;;47.92;28.15;;;5.40;85.30;;;3.31;100.00;97948.84;4969272;28;20410;-67
2021/12/17 01:44:58;;;;;;;49.65;28.27;;;5.40;85.30;;;3.29;100.00;97942.94;4967003;28;20125;-67
2021/12/17 01:47:24;;;;;;;48.40;28.50;;;5.30;85.50;;;3.30;100.00;97955.00;4955232;28;20031;-67
2021/12/17 02:00:44;;;;;;;46.90;26.77;;;5.50;85.20;;;3.32;100.00;97950.53;4964950;28;20037;-68
2021/12/17 02:03:11;;;;;;;46.53;27.05;;;5.50;85.00;;;3.32;100.00;97948.75;4936987;28;20151;-68
2021/12/17 02:05:38;;;;;;;47.35;27.50;;;5.50;85.10;;;3.33;100.00;97952.19;4961341;28;20037;-68
2021/12/17 02:08:04;;;;;;;44.50;26.38;;;5.60;85.00;;;3.35;100.00;97950.31;4978761;28;20129;-68
2021/12/17 02:19:25;;;;;;;45.47;27.35;;;5.60;85.10;;;3.36;100.00;97947.63;4958743;28;20127;-69
2021/12/17 02:32:19;;;;;;;42.30;25.65;;;5.60;84.80;;;3.40;100.00;97929.25;4960618;28;20629;-68
2021/12/17 02:37:31;;;;;;;39.90;25.45;;;5.60;85.00;;;3.43;100.00;97919.47;4963826;28;20053;-68
2021/12/17 02:45:32;;;;;;;42.40;26.60;;;5.60;85.00;;;3.42;100.00;97915.19;4974814;28;20035;-69
2021/12/17 02:48:08;;;;;;;40.28;25.92;;;5.60;85.00;;;3.42;100.00;97917.81;4950765;28;20053;-68
2021/12/17 02:50:36;;;;;;;40.10;26.23;;;5.60;84.80;;;3.43;100.00;97916.88;4965134;28;20259;-68
2021/12/17 02:53:07;;;;;;;44.25;26.85;;;5.60;84.70;;;3.44;100.00;97912.50;4962747;28;20527;-69
2021/12/17 02:55:37;;;;;;;42.08;25.35;;;5.60;84.90;;;3.45;100.00;97911.56;4964950;28;20049;-68
2021/12/17 02:58:04;;;;;;;44.97;26.75;;;5.60;85.00;;;3.45;100.00;97915.00;4966852;28;20030;-68
2021/12/17 03:00:30;;;;;;;46.20;27.48;;;5.60;85.00;;;3.46;100.00;97905.44;4960241;28;20038;-68
2021/12/17 03:02:56;;;;;;;45.88;27.75;;;5.60;85.00;;;3.48;100.00;97914.78;4957942;28;20109;-68
2021/12/17 03:05:23;;;;;;;43.15;27.38;;;5.60;84.90;;;3.49;100.00;97916.47;4964167;28;20379;-69
2021/12/17 03:07:50;;;;;;;45.03;26.35;;;5.60;84.80;;;3.48;100.00;97917.41;4986838;28;20066;-69
2021/12/17 03:10:15;;;;;;;44.00;27.25;;;5.60;84.80;;;3.48;100.00;97909.59;4958746;28;20140;-68
2021/12/17 03:12:48;;;;;;;42.42;27.35;;;5.60;85.00;;;3.50;100.00;97918.13;4954339;28;20030;-69
2021/12/17 03:15:35;;;;;;;45.67;27.77;;;5.60;85.00;;;3.51;100.00;97925.00;4972212;28;20058;-68
2021/12/17 03:23:39;;;;;;;41.97;24.98;;;5.70;84.90;;;3.51;100.00;97918.97;4936549;28;20119;-69
2021/12/17 03:26:11;;;;;;;43.78;26.10;;;5.70;84.80;;;3.49;100.00;97921.66;4915109;28;20053;-68
2021/12/17 03:28:40;;;;;;;42.42;26.27;;;5.60;84.90;;;3.49;100.00;97926.88;4949520;28;20545;-69
2021/12/17 03:31:06;;;;;;;45.78;26.80;;;5.60;85.10;;;3.51;100.00;97932.81;4969918;28;20129;-68
2021/12/17 03:33:32;;;;;;;46.78;26.77;;;5.60;84.90;;;3.51;100.00;97924.16;4971411;28;20116;-68
2021/12/17 03:35:58;;;;;;;44.60;27.10;;;5.70;84.90;;;3.52;100.00;97924.06;4968329;28;20041;-68
2021/12/17 03:38:24;;;;;;;46.55;27.98;;;5.70;85.00;;;3.53;100.00;97927.50;4964551;28;20411;-70
2021/12/17 03:40:58;;;;;;;49.40;29.98;;;5.60;84.90;;;3.53;100.00;97933.53;4948455;28;20058;-68
2021/12/17 03:43:30;;;;;;;35.28;22.33;;;5.60;84.90;;;3.53;100.00;97933.53;4974969;28;20329;-69
2021/12/17 03:45:55;;;;;;;44.58;25.88;;;5.60;85.00;;;3.54;100.00;97937.81;4987813;28;20058;-69
2021/12/17 03:48:21;;;;;;;43.78;27.23;;;5.70;84.80;;;3.54;100.00;97936.97;4970939;28;20435;-69
2021/12/17 03:50:47;;;;;;;45.67;26.75;;;5.70;84.80;;;3.55;100.00;97929.06;4978956;28;20518;-68
2021/12/17 03:53:13;;;;;;;45.83;27.73;;;5.70;84.60;;;3.52;100.00;97921.47;4981038;28;20038;-69
2021/12/17 03:55:38;;;;;;;42.72;26.08;;;5.60;84.80;;;3.50;100.00;97920.72;4983943;28;20038;-68
2021/12/17 03:58:04;;;;;;;46.22;27.38;;;5.60;84.70;;;3.49;100.00;97919.06;4983411;28;20049;-69
2021/12/17 04:00:30;;;;;;;50.78;31.20;;;5.70;84.80;;;3.50;100.00;97919.91;4960029;28;20057;-68
2021/12/17 04:02:56;;;;;;;47.05;29.17;;;5.70;84.80;;;3.51;100.00;97922.41;4966597;28;20039;-69
2021/12/17 04:05:22;;;;;;;50.97;29.55;;;5.70;84.80;;;3.53;100.00;97911.88;4986160;28;20129;-69
2021/12/17 04:07:47;;;;;;;47.03;28.27;;;5.60;84.80;;;3.51;100.00;97893.78;4972102;28;20094;-69
2021/12/17 04:10:13;;;;;;;64.93;38.15;;;5.70;84.70;;;3.52;100.00;97905.00;4962873;28;20047;-68
2021/12/17 04:15:08;;;;;;;51.42;27.95;;;5.60;84.70;;;3.43;100.00;97875.25;4969035;28;20046;-69
2021/12/17 04:17:42;;;;;;;51.85;28.27;;;5.40;85.20;;;3.37;100.00;97878.22;4968489;28;20034;-69
2021/12/17 04:20:08;;;;;;;53.72;32.13;;;5.30;85.60;;;3.31;100.00;97865.63;4974760;28;20132;-68
2021/12/17 04:22:34;;;;;;;58.97;35.78;;;5.20;85.80;;;3.30;100.00;97861.38;4958198;28;20132;-68
2021/12/17 04:25:00;;;;;;;51.45;29.77;;;5.30;86.00;;;3.29;100.00;97862.31;4982642;28;20093;-68
2021/12/17 04:27:25;;;;;;;48.92;27.38;;;5.30;85.60;;;3.26;100.00;97859.91;4966645;28;20054;-69
2021/12/17 04:29:52;;;;;;;48.53;28.20;;;5.30;85.60;;;3.23;100.00;97862.72;4958680;28;20038;-67
2021/12/17 04:32:18;;;;;;;50.45;28.00;;;5.20;85.70;;;3.20;100.00;97862.91;4956393;28;20137;-68
2021/12/17 04:34:44;;;;;;;49.53;28.52;;;5.30;85.70;;;3.20;100.00;97863.75;4956504;28;20042;-72
2021/12/17 04:37:09;;;;;;;46.90;27.60;;;5.30;85.60;;;3.20;100.00;97857.72;4951575;28;20486;-70
2021/12/17 04:39:36;;;;;;;49.35;28.02;;;5.30;85.50;;;3.19;100.00;97845.66;4937875;28;20054;-71
2021/12/17 04:42:08;;;;;;;63.55;29.48;;;5.20;85.30;;;3.13;100.00;97851.22;4956912;28;20572;-73
2021/12/17 04:44:37;;;;;;;84.68;29.23;;;5.10;85.70;;;3.07;100.00;97842.91;4921107;29;20035;-73
2021/12/17 04:57:53;;;;;;;111.60;60.05;;;4.90;86.90;;;2.87;100.00;97860.69;4983917;28;20046;-68
2021/12/17 05:00:23;;;;;;;156.80;33.15;;;4.90;86.70;;;2.85;100.00;97855.59;4968419;28;20064;-68
2021/12/17 05:02:52;;;;;;;190.23;28.50;;;4.90;86.40;;;2.81;100.00;97854.13;4953058;28;20122;-68
2021/12/17 05:05:19;;;;;;;139.98;28.35;;;4.80;86.50;;;2.75;100.00;97851.94;4968855;28;20143;-68
2021/12/17 05:07:51;;;;;;;169.93;29.08;;;4.70;86.80;;;2.68;100.00;97858.44;4943534;28;20542;-69
2021/12/17 05:18:29;;;;;;;81.80;26.55;;;4.70;86.90;;;2.58;100.00;97891.13;4968678;28;20568;-68
2021/12/17 05:21:02;;;;;;;53.35;25.60;;;4.60;86.60;;;2.57;100.00;97900.69;4969538;28;20034;-69
2021/12/17 05:23:33;;;;;;;57.17;24.77;;;4.60;86.70;;;2.59;100.00;97903.19;4969177;28;20054;-68
2021/12/17 05:26:02;;;;;;;;;;;4.70;86.40;;;2.58;100.00;97896.31;4953612;28;20411;-68
2021/12/17 05:28:27;;;;;;;148.25;22.85;;;4.70;86.20;;;2.57;100.00;97892.06;4952359;28;19921;-69
2021/12/17 05:30:55;;;;;;;93.68;24.17;;;4.70;86.40;;;2.58;100.00;97898.94;4949686;28;20127;-68
2021/12/17 05:33:21;;;;;;;58.60;23.55;;;4.70;86.50;;;2.59;100.00;97892.78;4950112;28;20039;-68
2021/12/17 05:35:47;;;;;;;72.47;22.90;;;4.70;86.40;;;2.59;100.00;97892.78;4967767;28;20110;-68
2021/12/17 05:38:14;;;;;;;100.47;23.60;;;4.70;86.40;;;2.60;100.00;97897.06;4968677;28;20148;-68
2021/12/17 05:40:40;;;;;;;107.55;24.10;;;4.70;86.50;;;2.62;100.00;97903.00;4953285;28;20031;-68
2021/12/17 05:43:06;;;;;;;46.47;23.38;;;4.70;86.30;;;2.62;100.00;97909.03;4935895;28;20391;-68
2021/12/17 05:45:35;;;;;;;39.03;23.23;;;4.80;86.30;;;2.62;100.00;97914.22;4952958;28;20045;-67
2021/12/17 05:48:06;;;;;;;67.85;23.48;;;4.80;86.20;;;2.64;100.00;97916.72;4946592;28;20098;-67
2021/12/17 05:50:34;;;;;;;43.25;22.35;;;4.70;86.20;;;2.65;100.00;97924.41;4949964;28;20046;-71
2021/12/17 05:52:59;;;;;;;41.28;23.33;;;4.80;86.20;;;2.63;100.00;97921.09;4952762;28;20035;-71
2021/12/17 05:55:26;;;;;;;65.22;24.90;;;4.80;86.30;;;2.67;100.00;97932.13;4969043;28;20181;-71
2021/12/17 05:58:29;;;;;;;60.22;28.17;;;4.80;86.30;;;2.68;100.00;97939.81;4968939;28;20030;-70
2021/12/17 06:00:55;;;;;;;61.50;26.23;;;4.80;86.50;;;2.68;100.00;97938.97;4955847;28;20030;-69
2021/12/17 06:03:23;;;;;;;54.78;24.77;;;4.80;86.50;;;2.69;100.00;97940.66;4951977;28;20450;-73
2021/12/17 06:05:48;;;;;;;55.55;25.75;;;4.80;86.50;;;2.71;100.00;97929.22;4968710;28;20039;-74
2021/12/17 06:08:14;;;;;;;66.95;36.00;;;4.90;86.50;;;2.72;100.00;97932.69;4967939;28;20077;-67
2021/12/17 06:10:40;;;;;;;71.60;42.13;;;4.90;86.70;;;2.75;100.00;97933.34;4961414;28;20035;-67
2021/12/17 06:13:06;;;;;;;72.93;30.08;;;4.90;86.80;;;2.79;100.00;97922.75;4938172;28;20040;-67
2021/12/17 06:15:32;;;;;;;43.88;24.75;;;5.00;86.50;;;2.82;100.00;97931.16;4951838;28;20035;-67
2021/12/17 06:17:58;;;;;;;67.65;24.30;;;5.10;86.60;;;2.84;100.00;97937.09;4925441;28;20097;-71
2021/12/17 06:20:24;;;;;;;43.97;23.52;;;5.00;86.30;;;2.85;100.00;97936.19;4967991;28;20126;-68
2021/12/17 06:22:50;;;;;;;49.67;26.58;;;5.00;86.40;;;2.87;100.00;97936.91;4952289;28;20035;-69
2021/12/17 06:25:16;;;;;;;77.80;30.80;;;5.10;86.20;;;2.91;100.00;97930.59;4969724;28;20473;-63
2021/12/17 06:27:42;;;;;;;50.58;26.88;;;5.10;86.50;;;2.91;100.00;97930.59;4968104;28;20035;-70
2021/12/17 06:30:11;;;;;;;51.05;23.30;;;5.10;86.20;;;2.92;100.00;97927.06;4967376;28;20041;-69
2021/12/17 06:32:37;;;;;;;50.72;22.92;;;5.10;86.10;;;2.93;100.00;97933.91;4967523;28;20358;-70
2021/12/17 06:35:04;;;;;;;52.30;24.23;;;5.10;86.10;;;2.94;100.00;97929.56;4952277;28;20027;-67
2021/12/17 06:37:30;;;;;;;41.75;23.40;;;5.10;85.90;;;2.95;100.00;97932.09;4967547;28;20129;-72
2021/12/17 06:39:56;;;;;;;41.75;23.65;;;5.20;86.00;;;2.97;100.00;97925.03;4932514;28;20035;-65
2021/12/17 06:42:21;;;;;;;38.75;21.90;;;5.10;85.80;;;2.96;100.00;97918.16;4965955;28;20041;-69
2021/12/17 06:44:48;;;;;;;39.88;22.65;;;5.10;85.40;;;2.97;100.00;97919.81;4968664;28;20046;-68
2021/12/17 06:47:27;;;;;;;60.33;33.80;;;5.10;85.50;;;2.97;100.00;97919.81;4968224;28;20392;-66
2021/12/17 06:50:01;;;;;;;40.63;23.17;;;5.10;85.70;;;2.97;100.00;97925.03;4956165;28;20406;-65
2021/12/17 07:06:03;;;;;;;71.53;23.25;;;5.00;85.80;;;2.88;100.00;97930.78;4955438;28;20410;-68
2021/12/17 07:11:17;;;;;;;45.65;23.20;;;4.90;85.90;;;2.86;100.00;97917.06;4974085;28;20031;-68
2021/12/17 07:31:25;;;;;;;68.97;22.02;;;5.10;85.40;;;2.93;100.00;97933.09;4942389;28;20046;-70
2021/12/17 07:32:45;;;;;;;41.97;23.08;;;5.10;85.10;;;2.95;100.00;97942.47;4956470;28;20102;-71
2021/12/17 07:40:10;;;;;;;39.45;22.20;;;5.10;85.20;;;2.97;100.00;97950.19;4968050;28;20063;-69
2021/12/17 07:42:36;;;;;;;36.33;21.58;;;5.10;85.00;;;2.98;100.00;97944.88;4967109;28;20111;-66
2021/12/17 07:45:03;;;;;;;39.65;23.52;;;5.20;85.10;;;3.02;100.00;97948.97;4966360;28;20070;-68
2021/12/17 07:47:29;;;;;;;34.83;20.35;;;5.20;85.00;;;3.03;100.00;97953.22;4955912;28;20042;-67
2021/12/17 07:49:54;;;;;;;36.67;21.10;;;5.20;85.00;;;3.05;100.00;97953.97;4940588;28;20038;-66
2021/12/17 07:52:20;;;;;;;34.70;20.58;;;5.30;84.90;;;3.05;100.00;97953.97;4953283;28;20551;-67
2021/12/17 07:54:46;;;;;;;34.55;20.73;;;5.30;84.70;;;3.06;100.00;97945.22;4970659;28;20184;-69
2021/12/17 07:57:12;;;;;;;34.63;21.75;;;5.30;84.80;;;3.11;100.00;97951.91;4935693;29;20539;-68
2021/12/17 07:59:39;;;;;;;31.50;20.50;;;5.40;84.60;;;3.16;100.00;97949.81;4936500;28;20487;-70
2021/12/17 08:02:06;;;;;;;31.02;20.05;;;5.40;84.70;;;3.19;100.00;97954.88;4950654;28;20038;-73
2021/12/17 08:04:32;;;;;;;30.13;19.38;;;5.40;84.40;;;3.21;100.00;97943.44;4954197;28;20035;-69
2021/12/17 08:06:58;;;;;;;32.13;20.83;;;5.60;84.40;;;3.26;100.00;97946.56;4963938;28;20426;-69
2021/12/17 08:09:25;;;;;;;38.50;22.15;;;5.60;84.40;;;3.31;100.00;97948.84;4949717;28;20036;-69
2021/12/17 08:11:56;;;;;;;35.40;22.50;;;5.60;84.40;;;3.33;100.00;97947.81;4965713;28;20126;-68
2021/12/17 08:14:22;;;;;;;43.10;22.80;;;5.70;84.10;;;3.37;100.00;97951.06;4951441;28;20052;-69
2021/12/17 08:17:02;;;;;;;41.78;23.08;;;5.70;84.10;;;3.40;100.00;97948.28;4969155;28;20038;-68
2021/12/17 08:24:59;;;;;;;37.15;22.63;;;5.80;83.90;;;3.51;100.00;97940.59;4956789;28;20093;-69
2021/12/17 08:27:30;;;;;;;37.60;20.65;;;5.80;83.70;;;3.55;100.00;97936.88;4939422;28;20535;-68
2021/12/17 08:30:21;;;;;;;35.92;21.13;;;5.90;83.40;;;3.61;100.00;97941.66;4970027;28;20694;-69
2021/12/17 08:32:47;;;;;;;34.90;20.73;;;6.00;83.40;;;3.67;100.00;97941.28;4961481;28;20060;-68
2021/12/17 08:35:13;;;;;;;33.90;21.58;;;6.00;83.20;;;3.71;100.00;97946.28;4969064;28;20507;-67
2021/12/17 08:37:39;;;;;;;29.50;18.65;;;6.00;82.80;;;3.76;100.00;97933.78;4970082;28;20047;-69
2021/12/17 08:40:06;;;;;;;30.38;19.27;;;6.10;82.80;;;3.82;100.00;97933.38;4934207;28;20106;-68
2021/12/17 08:42:32;;;;;;;29.30;17.95;;;6.20;82.50;;;3.86;100.00;97929.66;4969372;28;20090;-67
2021/12/17 08:44:59;;;;;;;28.52;18.80;;;6.20;82.20;;;3.91;100.00;97932.78;4954041;28;20042;-67
2021/12/17 08:47:25;;;;;;;27.90;18.15;;;6.30;82.10;;;3.97;100.00;97932.34;4970286;28;20399;-67
2021/12/17 08:49:51;;;;;;;29.73;18.17;;;6.40;82.20;;;4.02;100.00;97943.28;4934626;28;20047;-68
2021/12/17 08:52:17;;;;;;;28.13;17.50;;;6.40;82.30;;;4.06;100.00;97939.53;4968341;28;20089;-69
2021/12/17 08:54:43;;;;;;;27.30;17.88;;;6.40;81.70;;;4.11;99.92;97936.66;4953158;28;20569;-68
2021/12/17 08:57:09;;;;;;;25.10;15.95;;;6.50;81.10;;;4.18;99.41;97930.09;4950666;28;20031;-67
2021/12/17 08:59:35;;;;;;;24.13;14.88;;;6.70;81.30;;;4.25;99.76;97931.31;4936401;28;20367;-67
2021/12/17 09:02:01;;;;;;;21.33;14.80;;;6.80;80.50;;;4.31;98.85;97928.31;4947975;28;20028;-68
2021/12/17 09:04:27;;;;;;;18.33;14.05;;;6.80;80.40;;;4.38;99.13;97937.38;4962884;28;20097;-68
2021/12/17 09:06:56;;;;;;;18.27;12.93;;;6.90;79.90;;;4.46;98.01;97939.44;4985806;28;20118;-69
2021/12/17 09:09:23;;;;;;;17.73;11.60;;;7.00;79.70;;;4.53;98.31;97930.28;4937251;28;20455;-69
2021/12/17 09:11:52;;;;;;;16.80;12.95;;;7.10;79.30;;;4.61;97.25;97931.41;4953351;28;20031;-69
2021/12/17 09:14:19;;;;;;;11.48;9.02;;;7.20;79.10;;;4.71;96.76;97928.97;4968117;28;20039;-69
2021/12/17 09:16:49;;;;;;;9.63;7.75;;;7.20;77.70;;;4.75;95.58;97935.66;4953379;28;20030;-69
2021/12/17 09:19:14;;;;;;;11.48;9.57;;;7.30;77.40;;;4.87;96.49;97944.38;4953194;28;20034;-67
2021/12/17 09:21:40;;;;;;;11.57;9.43;;;7.40;77.90;;;4.92;95.85;97935.28;4969514;28;20082;-66
2021/12/17 09:24:06;;;;;;;11.32;8.68;;;7.40;78.10;;;4.99;95.37;97932.25;4952459;28;20031;-66
2021/12/17 09:26:35;;;;;;;7.20;6.05;;;7.50;78.00;;;5.05;94.37;97934.44;4953346;28;20414;-66
2021/12/17 09:29:01;;;;;;;6.85;5.82;;;7.50;75.50;;;5.10;93.18;97921.88;4969616;28;20039;-66
2021/12/17 09:31:26;;;;;;;6.50;5.70;;;7.50;74.50;;;5.12;91.95;97922.59;4951042;28;20046;-66
2021/12/17 09:33:52;;;;;;;8.63;6.85;;;7.60;74.40;;;5.16;92.04;97926.66;4935298;28;20050;-69
2021/12/17 09:36:19;;;;;;;7.53;5.97;;;7.60;74.60;;;5.17;91.34;97926.53;4950985;28;20057;-66
2021/12/17 09:38:49;;;;;;;6.15;5.40;;;7.60;74.40;;;5.20;90.92;97915.03;4968254;28;20107;-66
2021/12/17 09:41:16;;;;;;;8.20;5.38;;;7.60;74.00;;;5.19;90.30;97924.66;4975352;28;20023;-66
2021/12/17 09:43:42;;;;;;;7.05;5.43;;;7.50;74.10;;;5.17;90.06;97921.31;4950576;28;20063;-66
2021/12/17 09:46:08;;;;;;;6.00;5.15;;;7.50;74.30;;;5.12;90.43;97922.59;4969750;28;20410;-65
2021/12/17 09:48:34;;;;;;;8.45;6.15;;;7.30;74.20;;;5.13;90.00;97916.44;4934103;28;20046;-65
2021/12/17 09:51:02;;;;;;;12.52;7.43;;;7.40;75.00;;;5.16;90.58;97914.44;4957346;28;20042;-65
2021/12/17 09:53:28;;;;;;;10.32;7.93;;;7.50;75.10;;;5.15;89.55;97906.72;4968648;28;20042;-66
2021/12/17 09:55:54;;;;;;;9.07;7.03;;;7.40;74.30;;;5.16;88.96;97918.81;4968666;28;20046;-68
2021/12/17 09:58:20;;;;;;;11.10;8.20;;;7.50;74.60;;;5.17;89.72;97916.09;4948326;28;20130;-66
2021/12/17 10:00:46;;;;;;;8.95;8.00;;;7.50;74.80;;;5.21;89.62;97916.75;4951168;28;20118;-66
2021/12/17 10:03:11;;;;;;;11.65;9.13;;;7.60;75.00;;;5.20;88.96;97909.81;4956978;28;20034;-66
2021/12/17 10:05:38;;;;;;;10.57;9.30;;;7.50;74.80;;;5.19;89.23;97906.38;4975696;28;20042;-66
2021/12/17 10:08:09;;;;;;;14.68;11.43;;;7.40;75.00;;;5.21;89.00;97901.09;4954046;28;20042;-64
2021/12/17 10:10:46;;;;;;;9.98;8.98;;;7.40;75.30;;;5.15;88.50;97904.94;4936500;28;20031;-65
2021/12/17 10:13:23;;;;;;;10.63;8.45;;;7.20;74.90;;;5.12;88.43;97902.56;4950477;28;20118;-67
2021/12/17 10:15:55;;;;;;;9.63;7.50;;;7.40;75.00;;;5.15;88.25;97891.06;4968983;28;20418;-67
2021/12/17 10:18:37;;;;;;;8.90;8.00;;;7.60;74.30;;;5.24;87.81;97900.84;4948405;28;20039;-67
2021/12/17 10:21:06;;;;;;;8.48;7.35;;;7.90;73.50;;;5.36;89.20;97894.72;4968343;28;20050;-65
2021/12/17 10:23:32;;;;;;;8.80;7.85;;;8.20;72.00;;;5.46;88.95;97889.69;4971733;28;20062;-67
2021/12/17 10:25:58;;;;;;;9.30;8.35;;;8.30;72.20;;;5.60;88.29;97894.69;4948709;28;20134;-65
2021/12/17 10:28:24;;;;;;;9.43;8.30;;;8.70;71.40;;;5.78;87.95;97892.50;4964804;28;20042;-67
2021/12/17 10:30:50;;;;;;;10.75;8.30;;;9.20;69.50;;;5.94;88.05;97903.50;4968027;28;20473;-67
2021/12/17 10:33:23;;;;;;;8.45;7.25;;;9.40;68.40;;;6.10;86.46;97901.38;4951259;28;20050;-67
2021/12/17 10:35:50;;;;;;;8.02;7.15;;;9.60;67.60;;;6.27;86.58;97904.47;4937109;28;20023;-67
2021/12/17 10:38:23;;;;;;;8.00;7.20;;;9.70;66.70;;;6.39;86.05;97911.38;4951655;28;20038;-67
2021/12/17 10:41:05;;;;;;;7.95;7.15;;;9.50;66.90;;;6.46;83.80;97912.56;4978050;28;20137;-64
2021/12/17 10:43:41;;;;;;;8.90;7.72;;;9.40;67.40;;;6.46;83.99;97912.56;4939758;28;20115;-69
2021/12/17 10:46:22;;;;;;;8.40;7.43;;;9.10;67.80;;;6.45;84.07;97921.38;4967241;28;20035;-67
2021/12/17 10:48:52;;;;;;;9.43;7.55;;;8.90;68.50;;;6.44;84.70;97914.47;4953740;28;20118;-66
2021/12/17 10:51:45;;;;;;;10.05;7.45;;;9.00;69.10;;;6.50;83.98;97921.00;4941817;29;20391;-66
2021/12/17 10:54:20;;;;;;;8.95;7.60;;;9.20;69.10;;;6.53;83.10;97918.97;4956573;28;20042;-66
2021/12/17 10:56:54;;;;;;;8.05;7.25;;;9.30;68.60;;;6.60;83.24;97917.56;4968271;28;20046;-65
2021/12/17 10:59:28;;;;;;;8.02;6.93;;;9.20;68.40;;;6.66;83.08;97914.47;4967619;28;20097;-68
2021/12/17 11:02:14;;;;;;;8.02;7.18;;;9.30;68.90;;;6.70;82.22;97921.13;4952779;28;20050;-67
2021/12/17 11:04:43;;;;;;;9.90;8.40;;;9.20;68.50;;;6.68;83.16;97920.41;4950352;28;20474;-67
2021/12/17 11:07:17;;;;;;;9.10;8.20;;;9.10;68.80;;;6.65;82.31;97918.03;4951542;28;20045;-67
2021/12/17 11:10:00;;;;;;;8.30;7.22;;;9.10;68.90;;;6.68;82.72;97917.78;4936075;28;20042;-65
2021/12/17 11:12:45;;;;;;;8.63;7.72;;;9.10;69.60;;;6.68;81.90;97901.28;4931862;29;20538;-67
2021/12/17 11:15:27;;;;;;;9.00;8.10;;;9.10;69.40;;;6.66;81.61;97908.41;4968453;28;20027;-66
2021/12/17 11:18:01;;;;;;;8.45;7.18;;;9.10;68.60;;;6.66;82.70;97898.78;4969299;28;20030;-69
2021/12/17 11:20:37;;;;;;;8.05;7.25;;;9.10;68.70;;;6.69;82.62;97890.69;4936366;28;20035;-69
2021/12/17 11:23:10;;;;;;;8.30;7.50;;;9.30;68.40;;;6.75;83.30;97887.59;4959473;28;20578;-68
2021/12/17 11:25:38;;;;;;;8.32;7.32;;;9.40;69.00;;;6.83;83.51;97880.94;4951626;28;20489;-67
2021/12/17 11:28:05;;;;;;;8.52;7.50;;;9.60;69.10;;;6.88;83.09;97865.69;4955087;28;20031;-68
2021/12/17 11:30:32;;;;;;;8.70;7.30;;;9.60;67.90;;;6.94;83.10;97859.97;4969192;28;20050;-68
2021/12/17 11:33:01;;;;;;;9.55;6.78;;;9.60;68.30;;;6.98;82.42;97869.22;4954739;28;20035;-68
2021/12/17 11:35:28;;;;;;;8.70;7.35;;;9.70;67.70;;;7.03;82.12;97864.47;4939319;28;20126;-71
2021/12/17 11:38:00;;;;;;;8.45;7.25;;;9.70;67.30;;;7.04;81.90;97871.38;4936787;28;20113;-70
2021/12/17 11:40:31;;;;;;;13.65;7.55;;;9.70;67.30;;;7.05;81.48;97879.09;4955321;28;20270;-69
2021/12/17 11:43:15;;;;;;;8.55;7.53;;;9.60;67.70;;;7.03;81.40;97869.72;4954049;28;20038;-73
2021/12/17 11:45:42;;;;;;;9.90;7.50;;;9.50;68.60;;;7.03;81.71;97865.31;4970575;28;20077;-70
2021/12/17 11:48:17;;;;;;;8.40;7.50;;;9.50;68.60;;;7.04;81.50;97869.59;4938634;28;20042;-67
2021/12/17 11:50:44;;;;;;;10.23;7.97;;;9.60;68.50;;;7.04;81.94;97876.59;4955883;28;20031;-67
2021/12/17 11:53:22;;;;;;;9.90;8.02;;;9.60;68.50;;;7.06;81.36;97880.75;4953586;28;20041;-69
2021/12/17 11:55:58;;;;;;;10.07;8.27;;;9.60;68.40;;;7.09;80.67;97879.69;4954821;28;20051;-66
2021/12/17 11:58:55;;;;;;;8.93;7.60;;;9.70;68.00;;;7.16;81.29;97870.38;4954810;28;20450;-66
2021/12/17 12:02:01;;;;;;;8.45;7.53;;;9.80;68.40;;;7.20;80.79;97868.31;4955152;28;20105;-66
2021/12/17 12:04:32;;;;;;;8.48;7.68;;;9.90;68.00;;;7.26;81.49;97860.81;4964042;28;20451;-67
2021/12/17 12:07:07;;;;;;;9.75;7.25;;;10.20;67.00;;;7.47;81.58;97860.00;4972502;28;20043;-67
2021/12/17 12:10:03;;;;;;;8.73;7.82;;;11.30;63.80;;;7.66;80.57;97853.13;4954756;28;20039;-67
2021/12/17 12:12:38;;;;;;;8.52;7.32;;;11.10;63.60;;;7.76;79.60;97853.19;4969761;28;20050;-67
2021/12/17 12:15:28;;;;;;;8.82;7.93;;;11.60;62.10;;;7.92;78.52;97856.19;4968907;28;20503;-66
2021/12/17 12:18:13;;;;;;;10.50;8.85;;;11.60;61.10;;;8.14;79.78;97851.72;4971434;28;20161;-66
2021/12/17 12:20:47;;;;;;;9.30;8.30;;;11.80;64.10;;;8.27;78.54;97854.97;4953459;28;20043;-66
2021/12/17 12:23:29;;;;;;;10.07;8.63;;;11.90;61.40;;;8.39;78.46;97861.84;4974110;28;20031;-66
2021/12/17 12:26:04;;;;;;;10.13;9.05;;;12.10;60.70;;;8.66;77.52;97863.03;4981260;28;20146;-66
2021/12/17 12:28:45;;;;;;;9.55;8.63;;;13.60;55.60;;;8.71;78.36;97863.47;4976293;28;20089;-67
2021/12/17 12:31:12;;;;;;;10.68;9.52;;;12.30;59.00;;;8.58;79.84;97868.91;4969799;28;20035;-66
2021/12/17 12:34:04;;;;;;;11.02;9.85;;;11.60;60.30;;;8.35;76.97;97865.66;4953609;28;20061;-67
2021/12/17 12:36:50;;;;;;;10.18;8.68;;;10.90;62.20;;;8.14;77.51;97870.91;4970694;28;20494;-66
2021/12/17 12:39:31;;;;;;;10.70;9.38;;;10.50;64.40;;;7.99;77.53;97880.91;4971821;28;20053;-66
2021/12/17 12:42:22;;;;;;;11.15;9.80;;;10.10;65.70;;;7.81;77.27;97869.34;4969754;28;20050;-66
2021/12/17 12:44:48;;;;;;;;;;;9.90;66.90;;;7.62;77.69;97866.59;4983420;28;20483;-68
2021/12/17 12:47:26;;;;;;;9.98;8.98;;;9.70;67.50;;;7.48;78.65;97864.31;4973022;28;19922;-68
2021/12/17 12:50:06;;;;;;;10.20;9.07;;;9.70;67.30;;;7.40;79.30;97861.47;4971722;28;20042;-67
2021/12/17 12:52:32;;;;;;;10.55;9.43;;;9.70;67.60;;;7.26;80.16;97860.00;4966947;28;20394;-68
2021/12/17 12:55:43;;;;;;;10.48;9.38;;;9.40;68.70;;;7.10;79.67;97862.19;4971000;28;20035;-68
2021/12/17 12:58:24;;;;;;;;;;;9.40;68.90;;;6.96;80.24;97858.06;4955104;28;20159;-67
2021/12/17 13:00:54;;;;;;;11.32;9.95;;;9.30;69.20;;;6.89;81.09;97859.50;4968141;28;19921;-67
2021/12/17 13:03:25;;;;;;;11.25;10.13;;;9.10;70.10;;;6.81;81.32;97849.66;4967980;28;20038;-67
2021/12/17 13:05:50;;;;;;;11.73;10.53;;;9.00;70.70;;;6.73;81.59;97852.03;4972112;28;20046;-68
2021/12/17 13:08:18;;;;;;;12.13;10.88;;;8.80;70.40;;;6.66;80.91;97850.88;4942319;28;20042;-68
2021/12/17 13:10:56;;;;;;;12.05;10.77;;;8.70;71.00;;;6.59;81.42;97861.00;4937631;28;20027;-67